Flight Track Log - Related Links

Times and Time Zones

All times are in EDT time to prevent confusion due to time zone crossing. See the SWA1096 flight status page for this flight to view local times or setup timezone preferences in your user account.

Time Position Orientation Groundspeed Altitude Reporting Facility
EDT Latitude Longitude Course Direction KTS MPH feet Rate Location/Type
Fri 11:11:06 AM 40.7553 -112.0478 237° Southwest 206 237 7,000  Level Salt Lake Center
Fri 11:12:13 AM 40.8033 -112.1164 313° West 251 289 10,700 3,246 Climbing Salt Lake Center
Fri 11:13:08 AM 40.8550 -112.0753 31° Northeast 281 323 13,600 2,769 Climbing Salt Lake Center
Fri 11:14:10 AM 40.8928 -111.9725 64° Northeast 316 364 16,100 2,177 Climbing Salt Lake Center
Fri 11:15:12 AM 40.9344 -111.8642 63° Northeast 334 384 18,100 2,226 Climbing Salt Lake Center
Fri 11:16:14 AM 40.9678 -111.7053 74° East 395 455 20,700 2,371 Climbing Salt Lake Center
Fri 11:17:16 AM 40.9903 -111.5586 78° East 412 474 23,000 2,129 Climbing Salt Lake Center
Fri 11:18:18 AM 41.0131 -111.4042 79° East 431 496 25,100 1,951 Climbing Salt Lake Center
Fri 11:19:19 AM 41.0364 -111.2456 79° East 439 505 27,000 1,707 Climbing Salt Lake Center
Fri 11:20:21 AM 41.0597 -111.0819 79° East 450 518 28,600 1,694 Climbing Salt Lake Center
Fri 11:21:23 AM 41.0892 -110.8803 79° East 462 532 30,500 1,887 Climbing Salt Lake Center
Fri 11:22:25 AM 41.1136 -110.7086 79° East 471 542 32,500 1,839 Climbing Salt Lake Center
Fri 11:23:27 AM 41.1353 -110.5461 80° East 470 541 34,300 1,597 Climbing Salt Lake Center
Fri 11:24:29 AM 41.1606 -110.3608 80° East 462 532 35,800 1,210 Climbing Salt Lake Center
Fri 11:25:31 AM 41.1833 -110.1978 79° East 468 539 36,800 585 Climbing Salt Lake Center
Fri 11:26:32 AM 41.2094 -110.0067 80° East 472 543 37,000 98 Climbing Salt Lake Center
Fri 11:27:34 AM 41.2314 -109.8428 80° East 472 543 37,000  Level Salt Lake Center
Fri 11:28:36 AM 41.2519 -109.6814 80° East 467 537 37,000  Level Salt Lake Center
Fri 11:29:38 AM 41.2767 -109.4933 80° East 464 534 37,000  Level Salt Lake Center
Fri 11:30:40 AM 41.2972 -109.3325 80° East 464 534 37,000  Level Salt Lake Center
Fri 11:31:42 AM 41.3208 -109.1467 80° East 465 535 37,000  Level Salt Lake Center
Fri 11:32:44 AM 41.3458 -108.9628 80° East 463 533 37,000  Level Salt Lake Center
Fri 11:33:46 AM 41.3653 -108.8031 81° East 462 532 37,000  Level Salt Lake Center
Fri 11:34:47 AM 41.3889 -108.6122 81° East 470 541 37,000  Level Salt Lake Center
Fri 11:35:49 AM 41.4089 -108.4475 81° East 473 544 37,000  Level Salt Lake Center
Fri 11:36:51 AM 41.4314 -108.2544 81° East 473 544 37,000  Level Salt Lake Center
Fri 11:37:53 AM 41.4506 -108.0897 81° East 472 543 37,000  Level Salt Lake Center
Fri 11:38:11 AM 41.4569 -108.0325 82° East 473 544 37,000  Level Denver Center
Fri 11:39:14 AM 41.4758 -107.8664 81° East 474 545 37,000  Level Denver Center
Fri 11:40:16 AM 41.4989 -107.6731 81° East 474 545 37,000  Level Denver Center
Fri 11:41:18 AM 41.5172 -107.5078 82° East 472 543 37,000  Level Denver Center
Fri 11:42:20 AM 41.5386 -107.3178 81° East 465 535 37,000  Level Denver Center
Fri 11:43:22 AM 41.5567 -107.1522 82° East 470 541 37,000  Level Denver Center
Fri 11:44:24 AM 41.5669 -106.9569 86° East 471 542 37,000  Level Denver Center
Fri 11:45:26 AM 41.5678 -106.7869 90° East 478 550 37,000  Level Denver Center
Fri 11:46:28 AM 41.5714 -106.5881 89° East 481 554 37,000  Level Denver Center
Fri 11:47:30 AM 41.5717 -106.4183 90° East 479 551 37,000  Level Denver Center
Fri 11:48:32 AM 41.5739 -106.2211 89° East 478 550 37,000  Level Denver Center
Fri 11:49:34 AM 41.5772 -106.0542 88° East 473 544 37,000  Level Denver Center
Fri 11:50:36 AM 41.5781 -105.8600 90° East 471 542 37,000  Level Denver Center
Fri 11:51:38 AM 41.5767 -105.6878 91° East 480 552 37,000  Level Denver Center
Fri 11:52:40 AM 41.5783 -105.4931 89° East 475 547 37,000  Level Denver Center
Fri 11:53:42 AM 41.5778 -105.3253 90° East 475 547 37,000  Level Denver Center
Fri 11:54:44 AM 41.5775 -105.1297 90° East 474 545 37,000  Level Denver Center
Fri 11:55:46 AM 41.5772 -104.9625 90° East 474 545 37,000  Level Denver Center
Fri 11:56:48 AM 41.5767 -104.7722 90° East 464 534 37,000  Level Denver Center
Fri 11:57:50 AM 41.5764 -104.6081 90° East 465 535 37,000  Level Denver Center
Fri 11:58:52 AM 41.5747 -104.4147 91° East 469 540 37,000  Level Denver Center
Fri 11:59:54 AM 41.5739 -104.2469 90° East 474 545 37,000  Level Denver Center
Fri 12:00:56 PM 41.5725 -104.0533 90° East 471 542 37,000  Level Denver Center
Fri 12:01:58 PM 41.5703 -103.8864 91° East 472 543 37,000  Level Denver Center
Fri 12:03:01 PM 41.5681 -103.6908 91° East 473 544 37,000  Level Denver Center
Fri 12:04:03 PM 41.5656 -103.5242 91° East 473 544 37,000  Level Denver Center
Fri 12:05:05 PM 41.5633 -103.3253 91° East 479 551 37,000  Level Denver Center
Fri 12:06:07 PM 41.5597 -103.1569 92° East 479 551 37,000  Level Denver Center
Fri 12:07:09 PM 41.5575 -102.9875 91° East 479 551 37,000  Level Denver Center
Fri 12:08:11 PM 41.5522 -102.7919 92° East 474 545 37,000  Level Denver Center
Fri 12:09:13 PM 41.5494 -102.6267 91° East 469 540 37,000  Level Denver Center
Fri 12:10:15 PM 41.5522 -102.4322 89° East 470 541 37,000  Level Denver Center
Fri 12:11:17 PM 41.5556 -102.2658 88° East 469 540 37,000  Level Denver Center
Fri 12:12:19 PM 41.5600 -102.0706 88° East 471 542 37,000  Level Denver Center
Fri 12:13:21 PM 41.5622 -101.9033 89° East 470 541 37,000  Level Denver Center
Fri 12:14:23 PM 41.5636 -101.7103 89° East 467 537 37,000  Level Denver Center
Fri 12:15:25 PM 41.5650 -101.5436 89° East 467 537 37,000  Level Denver Center
Fri 12:16:27 PM 41.5667 -101.3503 89° East 465 535 37,000  Level Denver Center
Fri 12:17:29 PM 41.5672 -101.1833 90° East 468 539 37,000  Level Denver Center
Fri 12:18:31 PM 41.5686 -100.9897 89° East 468 539 37,000  Level Denver Center
Fri 12:19:33 PM 41.5681 -100.8244 90° East 465 535 37,000  Level Denver Center
Fri 12:20:35 PM 41.5692 -100.6556 89° East 472 543 37,000  Level Denver Center
Fri 12:21:37 PM 41.5694 -100.4572 90° East 476 548 37,000  Level Denver Center
Fri 12:22:39 PM 41.5689 -100.2869 90° East 477 549 37,000  Level Denver Center
Fri 12:23:41 PM 41.5681 -100.0881 90° East 478 550 37,000  Level Denver Center
Fri 12:24:43 PM 41.5669 -99.9175 90° East 479 551 37,000  Level Denver Center
Fri 12:25:46 PM 41.5658 -99.7411 90° East 479 551 37,000  Level Denver Center
Fri 12:26:48 PM 41.5642 -99.5622 91° East 480 552 37,000  Level Denver Center
Fri 12:27:50 PM 41.5625 -99.3483 91° East 479 551 37,000  Level Denver Center
Fri 12:28:52 PM 41.5606 -99.1703 91° East 477 549 37,000  Level Denver Center
Fri 12:29:27 PM 41.5594 -99.0628 91° East 478 550 37,000  Level Minneapolis Center
Fri 12:30:29 PM 41.5575 -98.8808 91° East 482 555 37,000  Level Minneapolis Center
Fri 12:31:31 PM 41.5531 -98.6931 92° East 489 563 37,000  Level Minneapolis Center
Fri 12:32:32 PM 41.5522 -98.5108 90° East 491 565 37,000  Level Minneapolis Center
Fri 12:33:34 PM 41.5478 -98.3303 92° East 490 564 37,000  Level Minneapolis Center
Fri 12:34:36 PM 41.5436 -98.1508 92° East 486 559 37,000  Level Minneapolis Center
Fri 12:35:37 PM 41.5408 -97.9728 91° East 484 557 37,000  Level Minneapolis Center
Fri 12:36:39 PM 41.5356 -97.7936 92° East 484 557 37,000  Level Minneapolis Center
Fri 12:37:41 PM 41.5317 -97.6147 92° East 483 556 37,000  Level Minneapolis Center
Fri 12:38:43 PM 41.5256 -97.4008 92° East 482 555 37,000  Level Minneapolis Center
Fri 12:39:44 PM 41.5211 -97.2219 92° East 482 555 37,000  Level Minneapolis Center
Fri 12:40:46 PM 41.5156 -97.0436 92° East 482 555 37,000  Level Minneapolis Center
Fri 12:41:48 PM 41.5106 -96.8664 92° East 480 552 37,000  Level Minneapolis Center
Fri 12:42:50 PM 41.5036 -96.6883 93° East 480 552 37,000  Level Minneapolis Center
Fri 12:43:52 PM 41.4986 -96.5108 92° East 479 551 37,000  Level Minneapolis Center
Fri 12:44:53 PM 41.4919 -96.3292 93° East 478 550 37,000  Level Minneapolis Center
Fri 12:45:55 PM 41.4853 -96.1531 93° East 477 549 37,000  Level Minneapolis Center
Fri 12:46:57 PM 41.4786 -95.9750 93° East 479 551 37,000  Level Minneapolis Center
Fri 12:47:59 PM 41.4711 -95.7619 93° East 479 551 37,000  Level Minneapolis Center
Fri 12:49:00 PM 41.4631 -95.6103 94° East 482 555 37,000  Level Minneapolis Center
Fri 12:50:02 PM 41.4519 -95.3928 94° East 485 558 37,000  Level Minneapolis Center
Fri 12:51:04 PM 41.4458 -95.2119 93° East 486 559 37,000  Level Minneapolis Center
Fri 12:52:06 PM 41.4372 -95.0272 93° East 495 570 37,000  Level Minneapolis Center
Fri 12:53:08 PM 41.4283 -94.8433 94° East 497 572 37,000  Level Minneapolis Center
Fri 12:54:09 PM 41.4203 -94.6583 93° East 499 574 37,000  Level Minneapolis Center
Fri 12:55:11 PM 41.4097 -94.4725 94° East 502 578 37,000  Level Minneapolis Center
Fri 12:56:13 PM 41.3953 -94.2881 96° East 501 577 37,000  Level Minneapolis Center
Fri 12:57:15 PM 41.3833 -94.0736 94° East 497 572 37,000  Level Minneapolis Center
Fri 12:58:17 PM 41.3739 -93.8914 94° East 495 570 37,000  Level Minneapolis Center
Fri 12:59:19 PM 41.3625 -93.7106 95° East 494 568 37,000  Level Minneapolis Center
Fri 01:00:21 PM 41.3522 -93.5306 94° East 492 566 37,000  Level Minneapolis Center
Fri 01:01:23 PM 41.3431 -93.3469 94° East 496 571 37,000  Level Minneapolis Center
Fri 01:02:24 PM 41.3336 -93.2019 95° East 496 571 37,000  Level Minneapolis Center
Fri 01:03:26 PM 41.3172 -92.9511 95° East 490 564 37,000  Level Minneapolis Center
Fri 01:04:28 PM 41.3053 -92.7739 95° East 487 560 37,000  Level Minneapolis Center
Fri 01:05:33 PM 41.2931 -92.5917 95° East 490 564 37,000  Level Chicago Center
Fri 01:06:35 PM 41.2800 -92.4106 95° East 493 567 37,000  Level Chicago Center
Fri 01:07:37 PM 41.2686 -92.2269 95° East 495 570 37,000  Level Chicago Center
Fri 01:08:39 PM 41.2525 -92.0103 96° East 496 571 37,000  Level Chicago Center
Fri 01:09:41 PM 41.2375 -91.8278 96° East 497 572 37,000  Level Chicago Center
Fri 01:10:43 PM 41.2225 -91.6342 96° East 496 571 37,000  Level Chicago Center
Fri 01:11:44 PM 41.2089 -91.4533 96° East 495 570 37,000  Level Chicago Center
Fri 01:12:46 PM 41.1944 -91.2725 96° East 493 567 37,000  Level Chicago Center
Fri 01:13:48 PM 41.1792 -91.0911 96° East 493 567 37,000  Level Chicago Center
Fri 01:14:50 PM 41.1644 -90.9100 96° East 494 568 37,000  Level Chicago Center
Fri 01:15:52 PM 41.1483 -90.7286 97° East 495 570 37,000  Level Chicago Center
Fri 01:16:54 PM 41.1333 -90.5483 96° East 493 567 37,000  Level Chicago Center
Fri 01:17:56 PM 41.1139 -90.3303 97° East 495 570 37,000  Level Chicago Center
Fri 01:18:57 PM 41.0978 -90.1514 97° East 489 563 37,000  Level Chicago Center
Fri 01:19:59 PM 41.0817 -89.9711 97° East 489 563 37,000  Level Chicago Center
Fri 01:21:01 PM 41.0642 -89.7911 97° East 488 562 37,000  Level Chicago Center
Fri 01:22:03 PM 41.0478 -89.6108 97° East 489 563 37,000  Level Chicago Center
Fri 01:23:05 PM 41.0303 -89.4297 97° East 490 564 37,000  Level Chicago Center
Fri 01:24:07 PM 41.0128 -89.2508 97° East 490 564 37,000  Level Chicago Center
Fri 01:25:08 PM 40.9944 -89.0731 98° East 486 559 37,000  Level Chicago Center
Fri 01:26:10 PM 40.9761 -88.8939 98° East 488 562 37,000  Level Chicago Center
Fri 01:27:12 PM 40.9550 -88.6844 98° East 493 567 37,000  Level Chicago Center
Fri 01:28:14 PM 40.9369 -88.5092 98° East 488 562 37,000  Level Chicago Center
Fri 01:29:16 PM 40.9175 -88.3308 98° East 493 567 37,000  Level Chicago Center
Fri 01:30:18 PM 40.8989 -88.1536 98° East 493 567 37,000  Level Chicago Center
Fri 01:31:20 PM 40.8758 -87.9411 98° East 493 567 37,000  Level Chicago Center
Fri 01:32:22 PM 40.8561 -87.7636 98° East 494 568 37,000  Level Chicago Center
Fri 01:33:24 PM 40.8369 -87.5886 98° East 491 565 37,000  Level Chicago Center
Fri 01:34:26 PM 40.8156 -87.4119 99° East 491 565 37,000  Level Chicago Center
Fri 01:35:28 PM 40.7961 -87.2364 98° East 491 565 37,000  Level Chicago Center
Fri 01:36:30 PM 40.7711 -87.0272 99° East 488 562 37,000  Level Chicago Center
Fri 01:37:32 PM 40.7500 -86.8531 99° East 485 558 37,000  Level Chicago Center
Fri 01:38:33 PM 40.7292 -86.6856 99° East 480 552 37,000  Level Chicago Center
Fri 01:39:35 PM 40.7064 -86.5131 100° East 481 554 37,000  Level Chicago Center
Fri 01:40:37 PM 40.6856 -86.3378 99° East 487 560 37,000  Level Chicago Center
Fri 01:41:39 PM 40.6586 -86.1281 100° East 489 563 37,000  Level Chicago Center
Fri 01:42:41 PM 40.6364 -85.9536 99° East 489 563 37,000  Level Chicago Center
Fri 01:43:43 PM 40.6142 -85.7803 100° East 487 560 37,000  Level Chicago Center
Fri 01:44:45 PM 40.5917 -85.6086 100° East 483 556 37,000  Level Chicago Center
Fri 01:45:47 PM 40.5678 -85.4364 100° East 483 556 37,000  Level Chicago Center
Fri 01:46:49 PM 40.5264 -85.2753 109° East 475 547 37,000  Level Chicago Center
Fri 01:47:51 PM 40.4761 -85.0822 109° East 469 540 37,000  Level Chicago Center
Fri 01:48:53 PM 40.4344 -84.9197 109° East 472 543 37,000  Level Chicago Center
Fri 01:49:55 PM 40.3925 -84.7564 109° East 474 545 37,000  Level Chicago Center
Fri 01:51:08 PM 40.3461 -84.5558 107° East 473 544 37,000  Level Indianapolis Center
Fri 01:52:10 PM 40.3078 -84.3883 107° East 474 545 37,000  Level Indianapolis Center
Fri 01:53:11 PM 40.2644 -84.1953 106° East 471 542 37,000  Level Indianapolis Center
Fri 01:54:13 PM 40.2547 -84.0125 94° East 490 564 37,000  Level Indianapolis Center
Fri 01:56:06 PM 40.2386 -83.6919 94° East 500 575 37,000  Level Chicago Center
Fri 01:57:19 PM 40.1997 -83.4856 104° East 472 543 37,000  Level Indianapolis Center
Fri 01:58:20 PM 40.1708 -83.3147 102° East 472 543 37,000  Level Indianapolis Center
Fri 01:59:22 PM 40.1414 -83.1444 103° East 473 544 37,000  Level Indianapolis Center
Fri 02:00:24 PM 40.1292 -82.9650 95° East 489 563 37,000  Level Indianapolis Center
Fri 02:01:25 PM 40.1147 -82.7872 96° East 486 559 37,000  Level Indianapolis Center
Fri 02:02:27 PM 40.1000 -82.6106 96° East 486 559 37,000  Level Indianapolis Center
Fri 02:03:29 PM 40.0864 -82.4353 96° East 482 555 37,000  Level Indianapolis Center
Fri 02:04:31 PM 40.0711 -82.2586 96° East 483 556 37,000  Level Indianapolis Center
Fri 02:05:32 PM 40.0556 -82.0842 97° East 480 552 37,000  Level Indianapolis Center
Fri 02:06:34 PM 40.0378 -81.8825 97° East 476 548 37,000  Level Indianapolis Center
Fri 02:07:36 PM 40.0236 -81.7231 97° East 474 545 37,000  Level Indianapolis Center
Fri 02:08:37 PM 40.0022 -81.5561 99° East 467 537 37,000  Level Indianapolis Center
Fri 02:09:39 PM 39.9806 -81.3872 99° East 468 539 37,000  Level Indianapolis Center
Fri 02:10:41 PM 39.9547 -81.1914 100° East 469 540 37,000  Level Indianapolis Center
Fri 02:11:21 PM 39.9369 -81.0811 102° East 464 534 37,000  Level Cleveland Center
Fri 02:12:21 PM 39.9186 -80.9269 99° East 469 540 37,000  Level Cleveland Center
Fri 02:13:21 PM 39.8981 -80.7561 99° East 471 542 37,000  Level Cleveland Center
Fri 02:14:21 PM 39.8733 -80.5778 100° East 491 565 37,000  Level Cleveland Center
Fri 02:15:21 PM 39.8481 -80.4100 101° East 486 559 37,000  Level Cleveland Center
Fri 02:16:21 PM 39.8206 -80.2181 101° East 486 559 37,000 -50 Level Cleveland Center
Fri 02:17:21 PM 39.7969 -80.0453 100° East 486 559 36,900 -900 Descending Cleveland Center
Fri 02:18:21 PM 39.7753 -79.8753 99° East 486 559 35,200 -1,931 Descending Cleveland Center
Fri 02:20:43 PM 39.7186 -79.4547 100° East 496 571 30,400 -2,228 Descending Washington Center
Fri 02:21:43 PM 39.6906 -79.2833 102° East 502 578 27,700 -2,600 Descending Washington Center
Fri 02:22:43 PM 39.6664 -79.1122 100° East 491 565 25,200 -1,350 Descending Washington Center
Fri 02:23:43 PM 39.6314 -78.9569 106° East 465 535 25,000 -100 Descending Washington Center
Fri 02:24:43 PM 39.5981 -78.7992 105° East 455 524 25,000 -400 Level Washington Center
Fri 02:25:43 PM 39.5625 -78.6414 106° East 455 524 24,200 -1,900 Descending Washington Center
Fri 02:26:43 PM 39.5269 -78.4839 106° East 455 524 21,200 -2,850 Descending Washington Center
Fri 02:27:43 PM 39.4950 -78.3292 105° East 449 517 18,500 -2,850 Descending Washington Center
Fri 02:28:43 PM 39.4611 -78.1747 106° East 444 511 15,500 -1,750 Descending Washington Center
Fri 02:29:43 PM 39.4264 -78.0283 107° East 439 505 15,000 -600 Descending Washington Center
Fri 02:30:43 PM 39.4228 -77.8939 92° East 388 447 14,300 -1,050 Descending Washington Center
Fri 02:31:43 PM 39.4297 -77.7572 86° East 388 447 12,900 -1,250 Descending Washington Center
Fri 02:32:43 PM 39.4361 -77.6231 86° East 383 441 11,800 -750 Descending Washington Center
Fri 02:33:43 PM 39.4400 -77.5075 87° East 370 426 11,400 -400 Descending Washington Center
Fri 02:34:43 PM 39.4442 -77.3839 87° East 355 409 11,000 -312 Descending Washington Center
Fri 02:35:00 PM 39.4500 -77.3333 81° East 346 398 11,000  Level Potomac TRACON
Fri 02:35:54 PM 39.4667 -77.2333 78° East 348 400 11,000 -737 Level Potomac TRACON
Fri 02:36:54 PM 39.4833 -77.1167 79° East 338 389 9,600 -1,571 Descending Potomac TRACON
Fri 02:38:00 PM 39.5167 -76.9833 72° East 336 387 7,700 -1,550 Descending Potomac TRACON
Fri 02:38:54 PM 39.5500 -76.8833 67° East 328 377 6,500 -1,200 Descending Potomac TRACON
Fri 02:40:00 PM 39.5833 -76.7667 70° East 313 360 5,300 -744 Descending Potomac TRACON
Fri 02:40:55 PM 39.5667 -76.7000 108° East 255 293 5,000 -157 Descending Potomac TRACON
Fri 02:41:55 PM 39.5333 -76.6500 131° Southeast 208 239 5,000 -421 Level Potomac TRACON
Fri 02:42:49 PM 39.5167 -76.7000 247° West 169 194 4,200 -526 Descending Potomac TRACON
Fri 02:43:49 PM 39.4833 -76.7500 229° Southwest 152 175 4,000 -105 Descending Potomac TRACON
Fri 02:44:43 PM 39.4667 -76.7833 237° Southwest 146 168 4,000  Level Potomac TRACON
Fri 02:45:49 PM 39.4333 -76.8333 229° Southwest 151 174 4,000  Level Potomac TRACON
Fri 02:46:49 PM 39.4000 -76.8333 180° South 146 168 4,000 -350 Level Potomac TRACON
Fri 02:47:49 PM 39.3500 -76.8333 180° South 154 177 3,300 -750 Descending Potomac TRACON
Fri 02:48:49 PM 39.3167 -76.8000 142° Southeast 167 192 2,500 -446 Descending Potomac TRACON
Fri 02:49:50 PM 39.2833 -76.7667 142° Southeast 160 184 2,400 -446 Descending Potomac TRACON
Fri 02:50:50 PM 39.2500 -76.7333 142° Southeast 142 163 1,600 -737 Descending Potomac TRACON
Fri 02:51:44 PM 39.2167 -76.7167 159° South 128 147 1,000 -667 Descending Potomac TRACON

Login

Don't have an account? Register now (free) for customized features, flight alerts, and more!